createdAt,value
2018-02-14T00:00:04.926Z,0
2018-02-14T00:05:02.911Z,0
2018-02-14T00:10:03.438Z,0
2018-02-14T00:15:02.909Z,1
2018-02-14T00:20:03.438Z,0
2018-02-14T00:25:02.928Z,0
2018-02-14T00:30:03.391Z,0
2018-02-14T00:35:03.013Z,0
2018-02-14T00:40:02.500Z,0
2018-02-14T00:45:03.029Z,0
2018-02-14T00:50:02.635Z,0
2018-02-14T00:55:03.171Z,0
2018-02-14T01:00:02.668Z,0
2018-02-14T01:05:02.914Z,0
2018-02-14T01:10:03.435Z,0
2018-02-14T01:15:02.913Z,0
2018-02-14T01:20:02.625Z,0
2018-02-14T01:25:03.086Z,0
2018-02-14T01:30:02.498Z,0
2018-02-14T01:35:03.056Z,0
2018-02-14T01:40:02.556Z,0
2018-02-14T01:45:03.046Z,0
2018-02-14T01:50:02.554Z,0
2018-02-14T01:55:03.005Z,0
2018-02-14T02:00:02.504Z,0
2018-02-14T02:05:02.953Z,0
2018-02-14T02:10:02.571Z,0
2018-02-14T02:15:03.549Z,0
2018-02-14T02:20:03.033Z,0
2018-02-14T02:25:02.562Z,0
2018-02-14T02:30:03.018Z,0
2018-02-14T02:35:02.569Z,0
2018-02-14T02:40:03.167Z,0
2018-02-14T02:45:02.757Z,1
2018-02-14T02:50:03.234Z,0
2018-02-14T02:55:02.791Z,0
2018-02-14T03:00:03.316Z,0
2018-02-14T03:05:02.850Z,0
2018-02-14T03:10:02.440Z,0
2018-02-14T03:15:02.898Z,1
2018-02-14T03:20:03.367Z,1
2018-02-14T03:25:02.798Z,0
2018-02-14T03:30:03.268Z,0
2018-02-14T03:35:02.710Z,0
2018-02-14T03:40:03.273Z,0
2018-02-14T03:45:02.760Z,0
2018-02-14T03:50:03.226Z,1
2018-02-14T03:55:02.703Z,1
2018-02-14T04:00:03.299Z,0
2018-02-14T04:05:02.811Z,1
2018-02-14T04:10:03.350Z,0
2018-02-14T04:15:02.794Z,0
2018-02-14T04:20:03.494Z,1
2018-02-14T04:25:02.973Z,1
2018-02-14T04:30:02.495Z,1
2018-02-14T04:35:02.996Z,1
2018-02-14T04:40:02.463Z,0
2018-02-14T04:45:02.869Z,1
2018-02-14T04:50:03.385Z,1
2018-02-14T04:55:02.858Z,1
2018-02-14T05:00:03.369Z,1
2018-02-14T05:05:02.863Z,1
2018-02-14T05:10:03.472Z,1
2018-02-14T05:15:02.915Z,1
2018-02-14T05:20:02.462Z,1
2018-02-14T05:25:03.045Z,1
2018-02-14T05:30:02.550Z,1
2018-02-14T05:35:03.013Z,1
2018-02-14T05:40:02.526Z,1
2018-02-14T05:45:02.988Z,1
2018-02-14T05:50:02.471Z,1
2018-02-14T05:55:03.032Z,1
2018-02-14T06:00:02.578Z,1
2018-02-14T06:05:03.076Z,1
2018-02-14T06:10:02.625Z,1
2018-02-14T06:15:03.096Z,2
2018-02-14T06:20:02.549Z,4
2018-02-14T06:25:03.200Z,8
2018-02-14T06:30:02.684Z,19
2018-02-14T06:35:03.214Z,38
2018-02-14T06:40:02.704Z,56
2018-02-14T06:45:03.154Z,71
2018-02-14T06:50:02.723Z,100
2018-02-14T06:55:03.232Z,263
2018-02-14T07:00:02.688Z,355
2018-02-14T07:05:03.134Z,442
2018-02-14T07:10:02.616Z,532
2018-02-14T07:15:03.122Z,620
2018-02-14T07:20:02.618Z,702
2018-02-14T07:25:03.082Z,780
2018-02-14T07:30:02.501Z,828
2018-02-14T07:35:03.000Z,906
2018-02-14T07:40:02.527Z,965
2018-02-14T07:45:03.076Z,1000
2018-02-14T07:50:02.590Z,1000
2018-02-14T07:55:03.049Z,1000
2018-02-14T08:00:02.522Z,1000
2018-02-14T08:05:03.013Z,1000
2018-02-14T08:10:02.606Z,1000
2018-02-14T08:15:03.141Z,1000
2018-02-14T08:20:02.674Z,1000
2018-02-14T08:25:03.205Z,21000
2018-02-14T08:30:02.680Z,22000
2018-02-14T08:35:03.116Z,23000
2018-02-14T08:40:02.991Z,24000
2018-02-14T08:45:02.558Z,25000
2018-02-14T08:50:03.004Z,26000
2018-02-14T08:55:02.391Z,27000
2018-02-14T09:00:02.887Z,28000
2018-02-14T09:05:03.316Z,29000
2018-02-14T09:10:02.815Z,29000
2018-02-14T09:15:03.257Z,30000
2018-02-14T09:20:02.837Z,31000
2018-02-14T09:25:03.353Z,31000
2018-02-14T09:30:02.976Z,31000
2018-02-14T09:35:02.645Z,32000
2018-02-14T09:40:03.081Z,33000
2018-02-14T09:45:02.583Z,33000
2018-02-14T09:50:03.104Z,33000
2018-02-14T09:55:02.628Z,34000
2018-02-14T10:00:03.144Z,34000
2018-02-14T10:05:03.094Z,34000
2018-02-14T10:10:02.807Z,34000
2018-02-14T10:15:03.252Z,35000
2018-02-14T10:20:02.719Z,35000
2018-02-14T10:25:03.164Z,35000
2018-02-14T10:30:02.631Z,35000
2018-02-14T10:35:03.179Z,36000
2018-02-14T10:40:02.893Z,36000
2018-02-14T10:45:03.428Z,36000
2018-02-14T10:50:02.896Z,36000
2018-02-14T10:55:03.327Z,36000
2018-02-14T11:00:02.800Z,37000
2018-02-14T11:05:03.280Z,37000
2018-02-14T11:10:02.860Z,37000
2018-02-14T11:15:03.286Z,35000
2018-02-14T11:20:02.812Z,37000
2018-02-14T11:25:03.271Z,36000
2018-02-14T11:30:02.750Z,37000
2018-02-14T11:35:03.209Z,37000
2018-02-14T11:40:02.718Z,37000
2018-02-14T11:45:03.149Z,37000
2018-02-14T11:50:02.609Z,37000
2018-02-14T11:55:03.063Z,28000
2018-02-14T12:00:02.546Z,23000
2018-02-14T12:05:03.052Z,24000
2018-02-14T12:10:02.531Z,11000
2018-02-14T12:15:03.029Z,27000
2018-02-14T12:20:02.505Z,18000
2018-02-14T12:25:02.945Z,18000
2018-02-14T12:30:02.481Z,18000
2018-02-14T12:35:03.002Z,17000
2018-02-14T12:40:02.581Z,28000
2018-02-14T12:45:03.062Z,26000
2018-02-14T12:50:02.531Z,29000
2018-02-14T12:55:03.096Z,31000
2018-02-14T13:00:02.577Z,27000
2018-02-14T13:05:03.037Z,32000
2018-02-14T13:10:02.561Z,27000
2018-02-14T13:15:03.020Z,19000
2018-02-14T13:20:02.575Z,30000
2018-02-14T13:25:03.048Z,29000
2018-02-14T13:30:02.519Z,29000
2018-02-14T13:35:03.020Z,25000
2018-02-14T13:40:02.672Z,28000
2018-02-14T13:45:03.117Z,28000
2018-02-14T13:50:02.657Z,26000
2018-02-14T13:55:03.264Z,15000
2018-02-14T14:00:02.764Z,16000
2018-02-14T14:05:03.286Z,19000
2018-02-14T14:10:02.812Z,17000
2018-02-14T14:15:03.510Z,16000
2018-02-14T14:20:03.052Z,15000
2018-02-14T14:25:02.585Z,16000
2018-02-14T14:30:03.143Z,22000
2018-02-14T14:35:02.693Z,20000
2018-02-14T14:40:03.196Z,11000
2018-02-14T14:45:02.664Z,7000
2018-02-14T14:50:03.147Z,10000
2018-02-14T14:55:02.666Z,16000
2018-02-14T15:00:03.190Z,14000
2018-02-14T15:05:02.662Z,14000
2018-02-14T15:10:03.242Z,10000
2018-02-14T15:15:02.728Z,7000
2018-02-14T15:20:03.299Z,6000
2018-02-14T15:25:02.939Z,7000
2018-02-14T15:30:02.469Z,11000
2018-02-14T15:35:02.970Z,6000
2018-02-14T15:40:02.674Z,12000
2018-02-14T15:45:03.209Z,4000
2018-02-14T15:50:02.784Z,2000
2018-02-14T15:55:03.389Z,1000
2018-02-14T16:00:02.940Z,1000
2018-02-14T16:05:03.427Z,1000
2018-02-14T16:10:02.853Z,1000
2018-02-14T16:15:03.309Z,932
2018-02-14T16:20:02.840Z,664
2018-02-14T16:25:03.443Z,533
2018-02-14T16:30:02.900Z,464
2018-02-14T16:35:03.422Z,435
2018-02-14T16:40:02.964Z,316
2018-02-14T16:45:03.471Z,90
2018-02-14T16:50:02.941Z,62
2018-02-14T16:55:03.393Z,49
2018-02-14T17:00:02.766Z,41
2018-02-14T17:05:03.392Z,28
2018-02-14T17:10:02.825Z,13
2018-02-14T17:15:03.383Z,7
2018-02-14T17:20:02.912Z,3
2018-02-14T17:25:02.450Z,1
2018-02-14T17:30:03.008Z,1
2018-02-14T17:35:02.641Z,1
2018-02-14T17:40:03.183Z,0
2018-02-14T17:45:02.748Z,0
2018-02-14T17:50:03.347Z,1
2018-02-14T17:55:02.910Z,1
2018-02-14T18:00:03.436Z,0
2018-02-14T18:05:02.857Z,1
2018-02-14T18:10:03.314Z,0
2018-02-14T18:15:02.861Z,0
2018-02-14T18:20:03.382Z,0
2018-02-14T18:25:02.812Z,0
2018-02-14T18:30:03.299Z,0
2018-02-14T18:35:02.877Z,0
2018-02-14T18:40:02.554Z,0
2018-02-14T18:45:03.202Z,0
2018-02-14T18:50:02.754Z,0
2018-02-14T18:55:03.301Z,0
2018-02-14T19:00:02.791Z,0
2018-02-14T19:05:03.394Z,0
2018-02-14T19:10:02.912Z,0
2018-02-14T19:15:03.490Z,0
2018-02-14T19:20:03.024Z,0
2018-02-14T19:25:02.530Z,0
2018-02-14T19:30:03.056Z,0
2018-02-14T19:35:02.565Z,1
2018-02-14T19:40:03.108Z,0
2018-02-14T19:45:02.687Z,0
2018-02-14T19:50:03.181Z,0
2018-02-14T19:55:02.807Z,0
2018-02-14T20:00:03.319Z,0
2018-02-14T20:05:02.918Z,0
2018-02-14T20:10:02.543Z,0
2018-02-14T20:15:03.021Z,0
2018-02-14T20:20:02.543Z,0
2018-02-14T20:25:03.019Z,1
2018-02-14T20:30:02.484Z,0
2018-02-14T20:35:02.970Z,0
2018-02-14T20:40:02.562Z,0
2018-02-14T20:45:03.076Z,0
2018-02-14T20:50:02.649Z,0
2018-02-14T20:55:03.212Z,0
2018-02-14T21:00:02.663Z,0
2018-02-14T21:05:03.211Z,0
2018-02-14T21:10:02.835Z,1
2018-02-14T21:15:03.402Z,0
2018-02-14T21:20:03.126Z,0
2018-02-14T21:25:02.950Z,0
2018-02-14T21:30:03.401Z,0
2018-02-14T21:35:02.890Z,0
2018-02-14T21:40:02.483Z,0
2018-02-14T21:45:03.283Z,0
2018-02-14T21:50:02.777Z,0
2018-02-14T21:55:03.199Z,0
2018-02-14T22:00:03.018Z,0
2018-02-14T22:05:02.504Z,0
2018-02-14T22:10:02.999Z,0
2018-02-14T22:15:02.529Z,0
2018-02-14T22:20:03.068Z,0
2018-02-14T22:25:02.540Z,0
2018-02-14T22:30:03.348Z,0
2018-02-14T22:35:02.783Z,0
2018-02-14T22:40:03.322Z,0
2018-02-14T22:45:02.727Z,0
2018-02-14T22:50:03.156Z,0
2018-02-14T22:55:02.638Z,0
2018-02-14T23:00:03.100Z,0
2018-02-14T23:05:02.704Z,0
2018-02-14T23:10:03.320Z,0
2018-02-14T23:15:02.807Z,0
2018-02-14T23:20:03.300Z,0
2018-02-14T23:25:02.699Z,0
2018-02-14T23:30:03.111Z,0
2018-02-14T23:35:02.590Z,0
2018-02-14T23:40:03.144Z,0
2018-02-14T23:45:02.672Z,0
2018-02-14T23:50:03.146Z,0
2018-02-14T23:55:02.625Z,0
